Time;durP1;ratioP1;P1;durP2;ratioP2;P2;SDS_P1;SDS_P2;PMS_P1;PMS_P2;Temp;Humidity;BMP_temperature;BMP_pressure;BME280_temperature;BME280_humidity;BME280_pressure;Samples;Min_cycle;Max_cycle;Signal;HPM_P1;HPM_P2
2023/01/04 00:00:19;;;;;;;43.50;5.13;;;11.70;99.90;;;;;;5086907;28;20063;-82
2023/01/04 00:02:45;;;;;;;51.17;5.72;;;11.70;99.90;;;;;;5090203;28;20088;-84
2023/01/04 00:05:10;;;;;;;39.38;4.13;;;11.60;99.90;;;;;;5104051;28;20035;-84
2023/01/04 00:07:36;;;;;;;40.67;4.28;;;11.60;99.90;;;;;;5069810;28;20696;-85
2023/01/04 00:10:02;;;;;;;33.97;4.78;;;11.60;99.90;;;;;;5069421;28;20513;-83
2023/01/04 00:12:27;;;;;;;34.28;4.68;;;11.60;99.90;;;;;;5084396;28;20494;-81
2023/01/04 00:14:53;;;;;;;32.03;4.30;;;11.60;99.90;;;;;;5086300;28;20076;-84
2023/01/04 00:17:19;;;;;;;34.88;3.38;;;11.50;99.90;;;;;;5085233;28;20074;-84
2023/01/04 00:19:44;;;;;;;28.55;3.63;;;11.60;99.90;;;;;;5086495;28;20435;-86
2023/01/04 00:22:10;;;;;;;33.28;3.13;;;11.60;99.90;;;;;;5097431;28;20032;-83
2023/01/04 00:24:35;;;;;;;22.65;2.40;;;11.60;99.90;;;;;;5101496;28;20128;-84
2023/01/04 00:27:01;;;;;;;18.00;2.40;;;11.50;99.90;;;;;;5088086;28;20270;-83
2023/01/04 00:29:26;;;;;;;13.27;1.75;;;11.50;99.90;;;;;;5078811;28;20392;-83
2023/01/04 00:31:52;;;;;;;16.40;1.88;;;11.50;99.90;;;;;;5063364;28;20269;-82
2023/01/04 00:34:18;;;;;;;9.93;1.50;;;11.50;99.90;;;;;;5064787;28;20058;-84
2023/01/04 00:36:44;;;;;;;12.40;1.40;;;11.60;99.90;;;;;;5065412;28;20044;-83
2023/01/04 00:39:14;;;;;;;14.02;1.92;;;11.50;99.90;;;;;;5084588;28;20050;-85
2023/01/04 00:41:47;;;;;;;13.75;2.22;;;11.50;99.90;;;;;;5083781;28;20024;-84
2023/01/04 00:44:13;;;;;;;18.98;1.92;;;11.50;99.90;;;;;;5066880;28;20024;-84
2023/01/04 00:46:40;;;;;;;13.27;2.72;;;11.50;99.90;;;;;;5094003;28;20058;-83
2023/01/04 00:49:07;;;;;;;16.92;2.38;;;11.50;99.90;;;;;;5074756;28;20506;-81
2023/01/04 00:51:34;;;;;;;14.90;2.90;;;11.40;99.90;;;;;;5085304;28;20039;-84
2023/01/04 00:54:02;;;;;;;20.20;2.08;;;11.40;99.90;;;;;;5066289;28;20032;-84
2023/01/04 00:56:29;;;;;;;13.13;1.98;;;11.50;99.90;;;;;;5091203;28;20115;-83
2023/01/04 00:59:00;;;;;;;22.58;2.67;;;11.40;99.90;;;;;;5104405;28;20118;-82
2023/01/04 01:01:27;;;;;;;12.60;1.60;;;11.40;99.90;;;;;;5089910;28;20052;-83
2023/01/04 01:03:54;;;;;;;19.30;2.65;;;11.50;99.90;;;;;;5102468;28;20131;-83
2023/01/04 01:06:21;;;;;;;26.83;3.58;;;11.60;99.90;;;;;;5085148;28;20035;-81
2023/01/04 01:08:47;;;;;;;29.15;3.15;;;11.60;99.90;;;;;;5103661;28;20020;-81
2023/01/04 01:11:12;;;;;;;40.33;4.53;;;11.60;99.90;;;;;;5088697;28;20084;-84
2023/01/04 01:13:39;;;;;;;30.70;4.15;;;11.60;99.90;;;;;;5070691;28;20385;-85
2023/01/04 01:16:06;;;;;;;35.85;4.53;;;11.70;99.90;;;;;;5096233;28;20043;-84
2023/01/04 01:18:33;;;;;;;36.60;4.22;;;11.70;99.90;;;;;;5074508;28;20198;-84
2023/01/04 01:20:59;;;;;;;36.65;4.20;;;11.70;99.90;;;;;;5102439;28;20601;-84
2023/01/04 01:23:24;;;;;;;44.10;4.95;;;11.70;99.90;;;;;;5090164;28;20036;-82
2023/01/04 01:25:50;;;;;;;28.88;3.40;;;11.70;99.90;;;;;;5104536;28;20111;-84
2023/01/04 01:28:16;;;;;;;31.20;3.78;;;11.70;99.90;;;;;;5090153;28;20032;-86
2023/01/04 01:30:42;;;;;;;29.02;3.88;;;11.70;99.90;;;;;;5068646;28;20444;-83
2023/01/04 01:33:09;;;;;;;27.77;3.15;;;11.70;99.90;;;;;;5090274;28;20012;-83
2023/01/04 01:35:35;;;;;;;29.00;3.17;;;11.70;99.90;;;;;;5064873;28;20055;-83
2023/01/04 01:38:01;;;;;;;27.60;3.67;;;11.70;99.90;;;;;;5078081;28;20055;-85
2023/01/04 01:40:27;;;;;;;24.80;3.35;;;11.60;99.90;;;;;;5070211;28;20546;-83
2023/01/04 01:42:52;;;;;;;28.27;3.70;;;11.60;99.90;;;;;;5087839;28;20391;-82
2023/01/04 01:45:36;;;;;;;26.10;3.40;;;11.70;99.90;;;;;;5069796;28;20268;-84
2023/01/04 01:48:11;;;;;;;33.40;4.63;;;11.60;99.90;;;;;;5074030;28;20142;-84
2023/01/04 01:50:46;;;;;;;39.55;4.32;;;11.60;99.90;;;;;;5097635;28;20028;-84
2023/01/04 01:53:13;;;;;;;47.20;5.75;;;11.70;99.90;;;;;;5088329;28;20162;-82
2023/01/04 01:55:41;;;;;;;34.42;3.55;;;11.70;99.90;;;;;;5088666;28;20032;-83
2023/01/04 01:58:11;;;;;;;33.22;4.05;;;11.70;99.90;;;;;;5074723;28;20111;-85
2023/01/04 02:00:36;;;;;;;35.83;4.78;;;11.70;99.90;;;;;;5084581;28;20079;-83
2023/01/04 02:03:17;;;;;;;40.63;4.82;;;11.70;99.90;;;;;;5088258;28;20051;-83
2023/01/04 02:05:44;;;;;;;37.60;5.20;;;11.70;99.90;;;;;;5104115;28;20106;-83
2023/01/04 02:08:11;;;;;;;34.17;4.18;;;11.70;99.90;;;;;;5078165;28;20043;-84
2023/01/04 02:10:37;;;;;;;34.63;4.07;;;11.70;99.90;;;;;;5068966;28;20110;-81
2023/01/04 02:13:08;;;;;;;39.03;4.30;;;11.80;99.90;;;;;;5099016;28;20096;-83
2023/01/04 02:15:51;;;;;;;33.88;5.13;;;11.80;99.90;;;;;;5068119;28;20408;-83
2023/01/04 02:18:24;;;;;;;28.92;4.32;;;11.80;99.90;;;;;;5097138;28;20027;-84
2023/01/04 02:20:58;;;;;;;30.65;3.42;;;11.80;99.90;;;;;;5077038;28;20034;-83
2023/01/04 02:23:47;;;;;;;26.90;3.05;;;11.80;99.90;;;;;;5106749;28;20376;-83
2023/01/04 02:26:15;;;;;;;34.63;3.67;;;11.80;99.90;;;;;;5072608;28;20169;-85
2023/01/04 02:28:56;;;;;;;22.17;2.72;;;11.80;99.90;;;;;;5086425;28;20374;-86
2023/01/04 02:31:21;;;;;;;25.15;3.15;;;11.80;99.90;;;;;;5089557;28;20036;-83
2023/01/04 02:34:11;;;;;;;25.13;2.67;;;11.80;99.90;;;;;;5084735;28;20230;-84
2023/01/04 02:36:42;;;;;;;23.25;3.72;;;11.80;99.90;;;;;;5069521;28;20041;-83
2023/01/04 02:39:11;;;;;;;26.52;4.35;;;11.80;99.90;;;;;;5056559;28;20479;-83
2023/01/04 02:41:41;;;;;;;20.73;2.70;;;11.80;99.90;;;;;;5087518;28;20127;-83
2023/01/04 02:47:00;;;;;;;24.35;2.67;;;11.80;99.90;;;;;;5099234;28;20093;-83
2023/01/04 02:52:10;;;;;;;28.50;3.80;;;11.80;99.90;;;;;;5078790;28;20047;-84
2023/01/04 02:54:37;;;;;;;32.90;4.15;;;11.70;99.90;;;;;;5086176;28;20028;-82
2023/01/04 02:57:33;;;;;;;25.73;3.80;;;11.80;99.90;;;;;;5073157;28;20028;-83
2023/01/04 03:00:26;;;;;;;27.30;4.57;;;11.70;99.90;;;;;;5068540;28;20028;-82
2023/01/04 03:06:23;;;;;;;32.00;5.00;;;11.70;99.90;;;;;;5102348;28;20062;-83
2023/01/04 03:08:57;;;;;;;34.00;3.85;;;11.70;99.90;;;;;;5101916;28;20027;-84
2023/01/04 03:14:20;;;;;;;27.92;3.65;;;11.60;99.90;;;;;;5084094;28;20505;-84
2023/01/04 03:16:48;;;;;;;29.60;4.22;;;11.60;99.90;;;;;;5062158;28;20150;-81
2023/01/04 03:19:50;;;;;;;35.38;3.80;;;11.50;99.90;;;;;;5097605;28;20063;-83
2023/01/04 03:22:02;;;;;;;23.75;3.28;;;11.50;99.90;;;;;;5063403;28;20442;-84
2023/01/04 03:36:28;;;;;;;28.38;3.85;;;11.60;99.90;;;;;;5000336;28;20054;-83
2023/01/04 03:48:30;;;;;;;44.35;4.68;;;11.70;99.90;;;;;;5091504;28;20039;-82
2023/01/04 03:51:21;;;;;;;45.50;6.00;;;11.60;99.90;;;;;;5090488;28;20040;-82
2023/01/04 03:53:50;;;;;;;35.53;4.72;;;11.60;99.90;;;;;;5052538;28;20673;-82
2023/01/04 03:56:17;;;;;;;53.20;5.70;;;11.60;99.90;;;;;;5085666;28;20437;-83
2023/01/04 03:58:43;;;;;;;42.15;4.70;;;11.70;99.90;;;;;;5090597;28;20100;-83
2023/01/04 04:01:09;;;;;;;57.63;5.57;;;11.70;99.90;;;;;;5067351;28;20120;-84
2023/01/04 04:09:03;;;;;;;56.67;6.15;;;11.70;99.90;;;;;;5081851;28;20058;-83
2023/01/04 04:11:29;;;;;;;56.20;6.95;;;11.70;99.90;;;;;;5095966;28;20032;-82
2023/01/04 04:13:55;;;;;;;54.13;6.70;;;11.70;99.90;;;;;;5083085;28;20115;-83
2023/01/04 04:16:20;;;;;;;54.53;6.53;;;11.80;99.90;;;;;;5102688;28;20166;-83
2023/01/04 04:18:47;;;;;;;65.78;5.72;;;11.70;99.90;;;;;;5081509;28;20060;-82
2023/01/04 04:21:13;;;;;;;59.53;5.55;;;11.80;99.90;;;;;;5097910;28;20029;-84
2023/01/04 04:23:39;;;;;;;66.13;7.20;;;11.70;99.90;;;;;;5078895;28;20024;-85
2023/01/04 04:26:05;;;;;;;64.88;7.10;;;11.80;99.90;;;;;;5059067;28;20288;-86
2023/01/04 04:28:30;;;;;;;68.68;6.50;;;11.80;99.90;;;;;;5056628;28;20428;-85
2023/01/04 04:30:56;;;;;;;50.17;6.32;;;11.80;99.90;;;;;;5065166;28;20075;-83
2023/01/04 04:33:22;;;;;;;56.47;6.47;;;11.80;99.90;;;;;;5055297;28;20016;-85
2023/01/04 04:35:52;;;;;;;58.28;6.43;;;11.80;99.90;;;;;;5068329;28;20044;-84
2023/01/04 04:38:18;;;;;;;68.77;7.17;;;11.80;99.90;;;;;;5084049;28;20088;-83
2023/01/04 04:43:29;;;;;;;67.57;7.60;;;11.80;99.90;;;;;;5106269;28;20524;-83
2023/01/04 04:45:55;;;;;;;53.05;6.97;;;11.80;99.90;;;;;;5108415;28;20035;-82
2023/01/04 04:48:21;;;;;;;60.78;6.07;;;11.80;99.90;;;;;;5097350;28;20020;-84
2023/01/04 04:50:46;;;;;;;67.20;7.32;;;11.80;99.90;;;;;;5089951;28;20127;-83
2023/01/04 04:53:12;;;;;;;72.70;7.65;;;11.80;99.90;;;;;;5102283;28;20297;-82
2023/01/04 04:55:37;;;;;;;70.60;8.15;;;11.80;99.90;;;;;;5086882;28;20052;-82
2023/01/04 04:58:03;;;;;;;65.45;7.05;;;11.80;99.90;;;;;;5087696;28;20035;-81
2023/01/04 05:00:29;;;;;;;62.05;7.18;;;11.80;99.90;;;;;;5069819;28;20424;-84
2023/01/04 05:02:58;;;;;;;73.78;6.70;;;11.80;99.90;;;;;;5070379;28;20033;-83
2023/01/04 05:05:23;;;;;;;60.95;6.53;;;11.90;99.90;;;;;;5104476;28;20110;-82
2023/01/04 05:07:49;;;;;;;51.13;6.40;;;11.80;99.90;;;;;;5068648;28;20495;-83
2023/01/04 05:10:15;;;;;;;70.07;6.82;;;11.80;99.90;;;;;;5101691;28;20510;-83
2023/01/04 05:12:58;;;;;;;69.13;7.07;;;11.80;99.90;;;;;;5106299;28;20532;-81
2023/01/04 05:15:36;;;;;;;64.07;6.63;;;11.90;99.90;;;;;;5078232;28;20076;-82
2023/01/04 05:18:02;;;;;;;67.78;7.28;;;11.80;99.90;;;;;;5085453;28;20038;-80
2023/01/04 05:20:28;;;;;;;69.25;7.15;;;11.90;99.90;;;;;;5064556;28;20032;-81
2023/01/04 05:22:54;;;;;;;57.25;7.05;;;11.90;99.90;;;;;;5078591;28;20027;-82
2023/01/04 05:25:19;;;;;;;70.82;8.18;;;11.90;99.90;;;;;;5070573;28;20092;-81
2023/01/04 05:27:45;;;;;;;73.15;7.70;;;11.90;99.90;;;;;;5106792;28;20034;-83
2023/01/04 05:32:57;;;;;;;63.22;7.32;;;11.90;99.90;;;;;;5084277;28;20089;-83
2023/01/04 05:35:23;;;;;;;60.20;7.53;;;11.90;99.90;;;;;;5103316;28;20447;-81
2023/01/04 05:37:48;;;;;;;55.05;6.20;;;11.90;99.90;;;;;;5086520;28;20080;-81
2023/01/04 05:40:14;;;;;;;49.92;6.18;;;11.90;99.90;;;;;;5085275;28;20343;-82
2023/01/04 05:42:40;;;;;;;49.03;5.38;;;12.00;99.90;;;;;;5085864;28;20036;-84
2023/01/04 05:45:06;;;;;;;51.45;6.05;;;12.00;99.90;;;;;;5100978;28;20138;-82
2023/01/04 05:47:31;;;;;;;63.63;6.90;;;12.00;99.90;;;;;;5066360;28;20048;-81
2023/01/04 05:49:57;;;;;;;60.47;6.75;;;12.00;99.90;;;;;;5087144;28;20092;-82
2023/01/04 05:52:23;;;;;;;74.57;7.25;;;12.00;99.90;;;;;;5088802;28;20049;-82
2023/01/04 05:54:48;;;;;;;64.18;6.88;;;12.00;99.90;;;;;;5097233;28;20056;-83
2023/01/04 05:57:15;;;;;;;59.58;7.10;;;12.00;99.90;;;;;;5085727;28;20059;-81
2023/01/04 05:59:40;;;;;;;74.25;7.90;;;11.90;99.90;;;;;;5085231;28;20036;-81
2023/01/04 06:02:11;;;;;;;61.72;6.93;;;12.00;99.90;;;;;;5102394;28;20031;-82
2023/01/04 06:04:37;;;;;;;45.03;5.57;;;11.90;99.90;;;;;;5063989;28;20380;-83
2023/01/04 06:07:02;;;;;;;56.45;6.45;;;12.00;99.90;;;;;;5063730;28;20123;-83
2023/01/04 06:09:28;;;;;;;60.55;6.15;;;12.00;99.90;;;;;;5083193;28;20036;-81
2023/01/04 06:11:54;;;;;;;50.45;6.03;;;11.90;99.90;;;;;;5100770;28;20412;-82
2023/01/04 06:14:19;;;;;;;44.10;5.78;;;12.00;99.90;;;;;;5101462;28;20024;-84
2023/01/04 06:16:45;;;;;;;44.47;6.13;;;12.00;99.90;;;;;;5072405;28;20027;-82
2023/01/04 06:19:10;;;;;;;53.65;5.90;;;12.00;99.90;;;;;;5096975;28;20031;-82
2023/01/04 06:21:36;;;;;;;40.38;5.22;;;12.00;99.90;;;;;;5084628;28;20070;-82
2023/01/04 06:24:02;;;;;;;41.20;5.07;;;12.00;99.90;;;;;;5084470;28;20028;-83
2023/01/04 06:26:27;;;;;;;47.30;6.03;;;12.00;99.90;;;;;;5099510;27;20039;-81
2023/01/04 06:28:53;;;;;;;35.83;3.97;;;11.90;99.90;;;;;;5095024;28;20446;-82
2023/01/04 06:31:18;;;;;;;41.63;4.70;;;12.00;99.90;;;;;;5065121;28;20320;-82
2023/01/04 06:33:44;;;;;;;47.10;4.68;;;12.00;99.90;;;;;;5079590;28;20403;-84
2023/01/04 06:36:10;;;;;;;34.58;4.43;;;12.00;99.90;;;;;;5082196;28;20028;-83
2023/01/04 06:38:35;;;;;;;38.83;4.80;;;12.00;99.90;;;;;;5093092;28;20031;-83
2023/01/04 06:41:01;;;;;;;44.35;4.63;;;12.00;99.90;;;;;;5091518;28;20077;-82
2023/01/04 06:43:27;;;;;;;41.70;3.85;;;12.00;99.90;;;;;;5086431;28;20035;-84
2023/01/04 06:45:52;;;;;;;22.88;3.20;;;11.90;99.90;;;;;;5068010;28;20418;-85
2023/01/04 06:48:18;;;;;;;29.55;3.40;;;11.90;99.90;;;;;;5076854;28;20110;-83
2023/01/04 06:50:43;;;;;;;17.35;2.42;;;11.90;99.90;;;;;;5085782;28;20039;-80
2023/01/04 06:53:09;;;;;;;30.70;2.90;;;12.00;99.90;;;;;;5086112;28;20394;-83
2023/01/04 06:55:35;;;;;;;36.13;4.18;;;12.00;99.90;;;;;;5070171;28;20444;-84
2023/01/04 06:58:00;;;;;;;36.90;3.97;;;11.90;99.90;;;;;;5087714;28;20024;-82
2023/01/04 07:00:26;;;;;;;32.67;4.15;;;11.90;99.90;;;;;;5099030;28;20401;-85
2023/01/04 07:02:52;;;;;;;25.10;3.05;;;11.90;99.90;;;;;;5080088;28;20055;-81
2023/01/04 07:05:17;;;;;;;26.23;3.90;;;12.00;99.90;;;;;;5095640;28;20047;-83
2023/01/04 07:07:43;;;;;;;32.47;3.35;;;12.00;99.90;;;;;;5082787;28;20036;-82
2023/01/04 07:10:09;;;;;;;30.73;3.60;;;12.00;99.90;;;;;;5084853;28;20039;-83
2023/01/04 07:12:36;;;;;;;29.08;3.88;;;11.90;99.90;;;;;;5065363;28;20142;-81
2023/01/04 07:15:02;;;;;;;22.30;3.10;;;11.90;99.90;;;;;;5045023;28;20109;-82
2023/01/04 07:17:28;;;;;;;26.17;2.78;;;11.90;99.90;;;;;;5064681;28;20500;-81
2023/01/04 07:19:53;;;;;;;13.70;2.30;;;11.90;99.90;;;;;;5083728;28;20383;-81
2023/01/04 07:22:19;;;;;;;17.73;1.88;;;11.90;99.90;;;;;;5094281;28;20178;-84
2023/01/04 07:24:45;;;;;;;17.42;2.58;;;11.90;99.90;;;;;;5089540;28;20044;-82
2023/01/04 07:27:11;;;;;;;19.55;2.72;;;11.90;99.90;;;;;;5087102;28;20028;-88
2023/01/04 07:29:37;;;;;;;24.63;3.53;;;11.90;99.90;;;;;;5103073;28;20024;-82
2023/01/04 07:32:03;;;;;;;19.60;3.35;;;11.90;99.90;;;;;;5087321;28;20338;-83
2023/01/04 07:34:29;;;;;;;20.27;2.92;;;11.90;99.90;;;;;;5075835;28;20530;-85
2023/01/04 07:36:55;;;;;;;21.98;2.65;;;11.90;99.90;;;;;;5084679;28;20047;-84
2023/01/04 07:39:20;;;;;;;19.20;2.45;;;11.90;99.90;;;;;;5084013;28;20028;-84
2023/01/04 07:41:47;;;;;;;20.92;3.25;;;11.80;99.90;;;;;;5083382;28;20024;-84
2023/01/04 07:44:14;;;;;;;16.35;2.10;;;11.90;99.90;;;;;;5081839;28;20402;-81
2023/01/04 07:46:41;;;;;;;19.67;2.22;;;11.90;99.90;;;;;;5085718;28;20036;-82
2023/01/04 07:49:11;;;;;;;14.50;1.90;;;11.80;99.90;;;;;;5060646;28;20029;-83
2023/01/04 07:51:36;;;;;;;16.90;2.20;;;11.90;99.90;;;;;;5062988;28;20039;-82
2023/01/04 07:54:02;;;;;;;19.20;2.03;;;11.90;99.90;;;;;;5078013;28;20036;-85
2023/01/04 07:56:27;;;;;;;13.10;2.00;;;11.80;99.90;;;;;;5060589;28;20038;-83
2023/01/04 07:58:56;;;;;;;19.83;2.40;;;11.80;99.90;;;;;;5060763;28;20033;-85
2023/01/04 08:01:23;;;;;;;17.52;2.33;;;11.80;99.90;;;;;;5078757;28;20075;-85
2023/01/04 08:03:49;;;;;;;21.95;2.45;;;11.90;99.90;;;;;;5076944;28;20024;-84
2023/01/04 08:06:15;;;;;;;11.95;1.95;;;11.80;99.90;;;;;;5070033;28;20595;-84
2023/01/04 08:08:41;;;;;;;15.05;2.22;;;11.80;99.90;;;;;;5087661;28;20032;-85
2023/01/04 08:11:13;;;;;;;17.70;3.28;;;11.80;99.90;;;;;;5066506;28;20036;-83
2023/01/04 08:13:39;;;;;;;18.80;2.22;;;11.80;99.90;;;;;;5065651;28;20114;-83
2023/01/04 08:16:05;;;;;;;20.00;2.40;;;11.80;99.90;;;;;;5084140;28;20032;-84
2023/01/04 08:18:31;;;;;;;23.05;2.30;;;11.80;99.90;;;;;;5100902;28;20027;-83
2023/01/04 08:21:01;;;;;;;23.80;2.88;;;11.80;99.90;;;;;;5076726;28;20502;-83
2023/01/04 08:23:27;;;;;;;16.15;2.42;;;11.80;99.90;;;;;;5064630;28;20036;-81
2023/01/04 08:25:52;;;;;;;23.80;3.23;;;11.80;99.90;;;;;;4727845;28;9999654;-81
2023/01/04 08:28:19;;;;;;;28.10;4.18;;;11.80;99.90;;;;;;5087488;28;20296;-83
2023/01/04 08:30:45;;;;;;;27.13;3.30;;;11.90;99.90;;;;;;5067016;28;20100;-83
2023/01/04 08:33:14;;;;;;;25.17;4.07;;;11.90;99.90;;;;;;5082441;28;20043;-81
2023/01/04 08:35:40;;;;;;;21.05;2.72;;;11.80;99.90;;;;;;5089312;28;20043;-82
2023/01/04 08:38:05;;;;;;;22.38;3.78;;;11.80;99.90;;;;;;5068431;28;20067;-82
2023/01/04 08:40:31;;;;;;;18.90;2.67;;;11.80;99.90;;;;;;5097169;28;20028;-83
2023/01/04 08:42:57;;;;;;;21.13;3.10;;;11.90;99.90;;;;;;5087092;28;20031;-83
2023/01/04 08:45:22;;;;;;;18.58;2.70;;;11.90;99.90;;;;;;5065053;28;20047;-82
2023/01/04 08:47:48;;;;;;;19.60;2.60;;;11.90;99.90;;;;;;5084164;28;20546;-83
2023/01/04 08:50:15;;;;;;;27.60;2.83;;;11.90;99.90;;;;;;5079671;28;20028;-82
2023/01/04 08:52:41;;;;;;;18.65;2.10;;;11.80;99.90;;;;;;5080290;28;20106;-82
2023/01/04 08:55:08;;;;;;;14.55;1.70;;;11.90;99.90;;;;;;5063302;28;20131;-83
2023/01/04 08:57:34;;;;;;;16.23;1.92;;;11.90;99.90;;;;;;5084706;28;20035;-83
2023/01/04 08:59:59;;;;;;;11.60;1.65;;;11.90;99.90;;;;;;5093736;28;20051;-81
2023/01/04 09:02:26;;;;;;;13.77;1.75;;;11.90;99.90;;;;;;5062505;28;20238;-83
2023/01/04 09:04:58;;;;;;;13.57;1.52;;;11.90;99.90;;;;;;5080046;28;20249;-82
2023/01/04 09:07:27;;;;;;;12.50;1.60;;;12.00;99.90;;;;;;5079051;28;20032;-82
2023/01/04 09:09:53;;;;;;;16.27;2.17;;;12.00;99.90;;;;;;5063123;28;20036;-83
2023/01/04 09:12:19;;;;;;;9.80;1.90;;;12.00;99.90;;;;;;5081609;28;20073;-84
2023/01/04 09:14:44;;;;;;;14.40;1.60;;;12.00;99.90;;;;;;5070983;28;20029;-83
2023/01/04 09:17:10;;;;;;;16.20;1.73;;;12.00;99.90;;;;;;5055792;28;20398;-83
2023/01/04 09:19:35;;;;;;;14.27;2.13;;;12.00;99.90;;;;;;5075593;28;20028;-85
2023/01/04 09:22:01;;;;;;;14.85;1.98;;;12.00;99.90;;;;;;5062539;28;20123;-82
2023/01/04 09:24:27;;;;;;;19.63;2.53;;;12.10;99.90;;;;;;5078014;28;20032;-83
2023/01/04 09:26:52;;;;;;;19.30;2.40;;;12.00;99.90;;;;;;5098111;28;20043;-84
2023/01/04 09:29:18;;;;;;;22.05;2.45;;;12.00;99.90;;;;;;5078478;28;20288;-85
2023/01/04 09:31:44;;;;;;;19.77;2.30;;;12.10;99.90;;;;;;5081366;28;20040;-84
2023/01/04 09:34:11;;;;;;;16.48;2.15;;;12.00;99.90;;;;;;5093886;27;20074;-84
2023/01/04 09:36:37;;;;;;;21.33;2.78;;;12.00;99.90;;;;;;5080558;28;20495;-84
2023/01/04 09:39:02;;;;;;;15.05;2.33;;;12.00;99.90;;;;;;5051574;28;20112;-85
2023/01/04 09:41:42;;;;;;;16.70;2.45;;;12.00;99.90;;;;;;5065587;28;20032;-85
2023/01/04 09:44:31;;;;;;;12.10;2.00;;;12.10;99.90;;;;;;5080107;28;20048;-85
2023/01/04 09:47:18;;;;;;;16.05;2.15;;;12.10;99.90;;;;;;5064507;28;20050;-84
2023/01/04 09:50:39;;;;;;;15.10;2.30;;;12.10;99.90;;;;;;5047310;28;20024;-83
2023/01/04 09:53:20;;;;;;;16.20;2.03;;;12.10;99.90;;;;;;5026190;28;20032;-86
2023/01/04 09:55:53;;;;;;;16.13;2.47;;;12.10;99.90;;;;;;5080294;28;20044;-85
2023/01/04 09:58:34;;;;;;;15.48;2.47;;;12.10;99.90;;;;;;5068752;28;20036;-86
2023/01/04 10:01:15;;;;;;;21.38;2.78;;;12.20;99.90;;;;;;5052814;28;20044;-85
2023/01/04 10:03:58;;;;;;;23.65;2.38;;;12.20;99.90;;;;;;5085841;28;20051;-87
2023/01/04 10:06:23;;;;;;;17.50;2.08;;;12.20;99.90;;;;;;5063427;28;20046;-83
2023/01/04 10:08:49;;;;;;;22.35;2.85;;;12.30;99.90;;;;;;5082908;28;20080;-84
2023/01/04 10:11:44;;;;;;;22.80;2.83;;;12.30;99.90;;;;;;5060661;28;20028;-84
2023/01/04 10:14:23;;;;;;;20.23;2.63;;;12.20;99.90;;;;;;5075411;28;20028;-85
2023/01/04 10:17:03;;;;;;;18.70;2.40;;;12.20;99.90;;;;;;5066316;28;20023;-85
2023/01/04 10:20:02;;;;;;;20.55;3.00;;;12.20;99.90;;;;;;5079846;28;20499;-85
2023/01/04 10:22:46;;;;;;;21.15;2.25;;;12.30;99.90;;;;;;5076595;28;20031;-87
2023/01/04 10:25:24;;;;;;;23.13;2.92;;;12.30;99.90;;;;;;5091455;28;20382;-85
2023/01/04 10:28:02;;;;;;;22.40;3.38;;;12.30;99.90;;;;;;5104930;28;20112;-90
2023/01/04 10:31:00;;;;;;;21.70;2.45;;;12.40;99.90;;;;;;5085485;28;20031;-88
2023/01/04 10:33:36;;;;;;;24.02;3.13;;;12.50;99.90;;;;;;5064966;28;20032;-87
2023/01/04 10:36:02;;;;;;;21.13;2.42;;;12.50;99.90;;;;;;5084681;22;20146;-73
2023/01/04 10:38:32;;;;;;;24.63;3.67;;;12.60;99.90;;;;;;5069745;28;20553;-73
2023/01/04 10:41:05;;;;;;;28.48;3.45;;;12.60;99.90;;;;;;5079290;28;20039;-73
2023/01/04 10:43:50;;;;;;;29.00;3.58;;;12.60;99.90;;;;;;5072031;28;20036;-73
2023/01/04 10:46:42;;;;;;;18.13;2.72;;;12.70;99.90;;;;;;5068130;28;20043;-74
2023/01/04 10:49:16;;;;;;;22.45;3.10;;;12.70;99.90;;;;;;5048561;28;20046;-74
2023/01/04 10:51:53;;;;;;;33.92;4.28;;;12.70;99.90;;;;;;5071244;28;20454;-74
2023/01/04 10:54:52;;;;;;;29.65;3.42;;;12.80;99.90;;;;;;5072504;28;20120;-73
2023/01/04 10:57:47;;;;;;;28.27;3.25;;;13.00;99.90;;;;;;5072480;28;20020;-74
2023/01/04 11:00:18;;;;;;;25.92;3.88;;;13.20;99.90;;;;;;5068759;28;20047;-74
2023/01/04 11:02:58;;;;;;;29.73;3.83;;;13.40;99.90;;;;;;5077601;28;20036;-73
2023/01/04 11:05:39;;;;;;;33.00;4.00;;;13.50;99.90;;;;;;5078456;28;20032;-73
2023/01/04 11:08:16;;;;;;;31.05;4.25;;;13.70;99.90;;;;;;5071278;28;20027;-74
2023/01/04 11:10:49;;;;;;;30.38;3.65;;;13.80;99.90;;;;;;5078792;28;20081;-73
2023/01/04 11:13:15;;;;;;;26.77;3.50;;;13.70;99.90;;;;;;5079578;28;20551;-73
2023/01/04 11:15:41;;;;;;;30.23;4.32;;;13.70;99.90;;;;;;5079274;28;20131;-73
2023/01/04 11:18:10;;;;;;;37.70;4.63;;;13.70;99.90;;;;;;5078672;28;20020;-72
2023/01/04 11:20:36;;;;;;;27.20;4.38;;;13.60;99.90;;;;;;5075900;28;20035;-73
2023/01/04 11:23:18;;;;;;;29.88;5.32;;;13.70;99.90;;;;;;5075227;28;20034;-73
2023/01/04 11:25:57;;;;;;;24.50;3.78;;;13.50;99.90;;;;;;5075026;28;20210;-73
2023/01/04 11:28:23;;;;;;;32.78;4.00;;;13.40;99.90;;;;;;5075895;28;20328;-73
2023/01/04 11:31:02;;;;;;;30.88;4.53;;;13.30;99.90;;;;;;5078364;28;20038;-72
2023/01/04 11:33:28;;;;;;;33.40;4.25;;;13.20;99.90;;;;;;5074326;28;20032;-73
2023/01/04 11:35:57;;;;;;;28.17;4.00;;;13.20;99.90;;;;;;5075671;28;20055;-73
2023/01/04 11:38:26;;;;;;;33.28;5.05;;;13.10;99.90;;;;;;5079050;28;20110;-72
2023/01/04 11:41:15;;;;;;;28.35;4.22;;;13.10;99.90;;;;;;5076515;28;20036;-73
2023/01/04 11:43:59;;;;;;;35.50;4.65;;;13.00;99.90;;;;;;5067392;28;20123;-73
2023/01/04 11:46:26;;;;;;;28.77;3.70;;;13.00;99.90;;;;;;5075686;28;20075;-72
2023/01/04 11:48:52;;;;;;;31.58;3.88;;;13.10;99.90;;;;;;5075167;28;20030;-72
2023/01/04 11:51:30;;;;;;;30.13;3.55;;;13.10;99.90;;;;;;5075322;28;20391;-71
2023/01/04 11:54:12;;;;;;;25.02;3.83;;;13.10;99.90;;;;;;5066688;28;20036;-71
2023/01/04 11:57:01;;;;;;;30.88;4.22;;;13.10;99.90;;;;;;4823952;28;10001236;-71
2023/01/04 11:59:27;;;;;;;21.90;3.65;;;13.20;99.90;;;;;;5075825;28;20744;-72
2023/01/04 12:02:19;;;;;;;30.02;3.70;;;13.20;99.90;;;;;;5074753;28;20032;-72
2023/01/04 12:04:44;;;;;;;;;;;13.30;99.90;;;;;;5058387;28;20506;-71
2023/01/04 12:07:34;;;;;;;29.83;3.30;;;13.40;99.90;;;;;;5081790;28;20314;-71
2023/01/04 12:10:12;;;;;;;24.60;3.65;;;13.20;99.90;;;;;;5077413;28;20028;-71
2023/01/04 12:12:38;;;;;;;26.65;3.60;;;13.20;99.90;;;;;;5076401;28;20119;-71
2023/01/04 12:15:13;;;;;;;21.38;3.28;;;13.20;99.90;;;;;;5075530;28;20441;-71
2023/01/04 12:18:06;;;;;;;23.50;3.58;;;13.20;99.90;;;;;;5077562;28;20078;-71
2023/01/04 12:20:32;;;;;;;18.73;2.85;;;13.40;99.90;;;;;;5078095;28;20818;-72
2023/01/04 12:22:58;;;;;;;28.45;3.55;;;13.40;99.90;;;;;;5069045;28;20043;-70
2023/01/04 12:25:29;;;;;;;26.40;3.47;;;13.30;99.90;;;;;;5073621;28;20047;-72
2023/01/04 12:27:55;;;;;;;29.95;3.95;;;13.40;99.90;;;;;;5068500;28;20457;-72
2023/01/04 12:30:34;;;;;;;25.50;3.38;;;13.50;99.90;;;;;;5077509;28;20055;-72
2023/01/04 12:33:29;;;;;;;23.42;3.35;;;13.60;99.90;;;;;;5072840;28;20468;-72
2023/01/04 12:36:01;;;;;;;21.92;3.08;;;13.80;99.90;;;;;;5067556;28;20063;-72
2023/01/04 12:38:57;;;;;;;27.73;3.50;;;13.90;99.90;;;;;;5072541;28;20420;-73
2023/01/04 12:41:59;;;;;;;30.38;4.53;;;14.10;99.90;;;;;;5074451;28;20075;-71
2023/01/04 12:44:42;;;;;;;27.63;3.50;;;14.10;99.90;;;;;;5064040;28;20094;-73
2023/01/04 12:50:10;;;;;;;21.10;3.85;;;14.60;99.90;;;;;;5069771;28;20892;-72
2023/01/04 12:52:54;;;;;;;25.83;3.72;;;15.00;99.90;;;;;;5059590;28;20105;-72
2023/01/04 12:55:31;;;;;;;28.33;3.97;;;15.30;99.90;;;;;;5074944;28;20394;-72
2023/01/04 12:57:58;;;;;;;31.85;4.22;;;15.20;99.90;;;;;;5078093;28;20514;-72
2023/01/04 13:00:49;;;;;;;29.38;4.40;;;15.20;99.90;;;;;;5076045;28;20047;-73
2023/01/04 13:03:14;;;;;;;33.77;4.53;;;14.80;99.90;;;;;;5077563;28;20043;-72
2023/01/04 13:06:01;;;;;;;25.15;3.60;;;14.40;99.90;;;;;;5078500;28;20044;-72
2023/01/04 13:08:32;;;;;;;36.88;4.43;;;14.10;99.90;;;;;;5072382;28;20055;-73
2023/01/04 13:10:59;;;;;;;34.75;4.40;;;13.70;99.90;;;;;;5072080;28;20039;-72
2023/01/04 13:13:37;;;;;;;28.33;4.32;;;13.50;99.90;;;;;;5062714;28;20123;-73
2023/01/04 13:16:11;;;;;;;33.55;4.70;;;13.30;99.90;;;;;;5066731;28;20120;-71
2023/01/04 13:18:41;;;;;;;43.90;5.60;;;13.20;99.90;;;;;;5064265;28;20032;-73
2023/01/04 13:21:12;;;;;;;31.92;4.70;;;13.20;99.90;;;;;;5065225;28;20028;-73
2023/01/04 13:23:39;;;;;;;30.83;4.60;;;13.10;99.90;;;;;;5064828;28;20111;-73
2023/01/04 13:26:27;;;;;;;42.55;5.40;;;13.20;99.90;;;;;;5071035;28;20036;-73
2023/01/04 13:29:16;;;;;;;37.63;4.88;;;13.10;99.90;;;;;;5066052;28;20029;-73
2023/01/04 13:31:45;;;;;;;39.08;5.47;;;13.10;99.90;;;;;;5067240;28;20259;-72
2023/01/04 13:34:36;;;;;;;46.35;5.22;;;13.10;99.90;;;;;;5065093;28;20094;-73
2023/01/04 13:37:12;;;;;;;;;;;13.10;99.90;;;;;;5060070;28;20044;-73
2023/01/04 13:39:40;;;;;;;31.73;4.38;;;13.10;99.90;;;;;;5064049;28;20449;-73
2023/01/04 13:42:23;;;;;;;44.70;5.93;;;13.00;99.90;;;;;;5068579;28;20305;-72